Jacksonville, Pennsylvania
Current Conditions -  °F | °C
As of 12:54 AM on Thursday 18 Dec 2014 (Local Time) from KRDG Reporting Station
Broken Clouds Broken Clouds  
Wind Chill: 26°   Ceiling: 6500
Heat Index: 35°   Visibility: 10mi
Dew Point: 21°   Wind: 15mph
Humidity: 57%   Direction: 290°WNW
Pressure: 29.98"   Gusts: 28mph
Location:  40.6329°N, 75.8768°W
Report Text: KRDG 180554Z 29013G24KT 10SM BKN065 02/M06 A2998 RMK AO2 SLP158 T00171061 10039 20017 55005
Loading
Personal Weather Stations






























Interactive Weather Map New forecast layout! Learn more

10-Day Weather Forecast

Advertisements
Track Severe Weather on mobile